createdAt,value
2019-01-15T00:00:29.993Z,10.73
2019-01-15T00:03:00.353Z,3.40
2019-01-15T00:05:32.201Z,5.13
2019-01-15T00:08:02.488Z,8.23
2019-01-15T00:10:53.272Z,8.07
2019-01-15T00:13:36.601Z,8.57
2019-01-15T00:16:18.746Z,5.67
2019-01-15T00:19:00.995Z,3.60
2019-01-15T00:21:31.389Z,2.43
2019-01-15T00:24:22.174Z,3.03
2019-01-15T00:26:54.019Z,3.00
2019-01-15T00:29:44.890Z,2.03
2019-01-15T00:32:27.295Z,2.00
2019-01-15T00:34:57.638Z,2.77
2019-01-15T00:37:48.526Z,2.23
2019-01-15T00:40:31.722Z,2.57
2019-01-15T00:43:13.588Z,3.00
2019-01-15T00:45:55.526Z,1.90
2019-01-15T00:48:37.310Z,3.23
2019-01-15T00:51:07.625Z,1.90
2019-01-15T00:53:58.460Z,1.97
2019-01-15T00:56:40.346Z,1.63
2019-01-15T00:59:22.094Z,2.80
2019-01-15T01:02:03.871Z,2.13
2019-01-15T01:04:46.150Z,1.33
2019-01-15T01:07:28.739Z,1.20
2019-01-15T01:10:10.586Z,1.77
2019-01-15T01:12:52.238Z,2.27
2019-01-15T01:15:34.506Z,1.90
2019-01-15T01:18:16.458Z,2.07
2019-01-15T01:20:58.558Z,2.57
2019-01-15T01:23:40.530Z,2.33
2019-01-15T01:26:22.678Z,2.10
2019-01-15T01:29:04.429Z,4.23
2019-01-15T01:31:34.769Z,4.20
2019-01-15T01:34:06.514Z,4.00
2019-01-15T01:36:50.174Z,4.27
2019-01-15T01:39:31.934Z,5.17
2019-01-15T01:42:13.858Z,6.37
2019-01-15T01:44:56.214Z,5.93
2019-01-15T01:47:37.936Z,4.53
2019-01-15T01:50:20.374Z,3.20
2019-01-15T01:53:02.326Z,3.73
2019-01-15T01:55:51.870Z,4.43
2019-01-15T01:58:42.670Z,5.20
2019-01-15T02:01:26.655Z,4.93
2019-01-15T02:04:08.398Z,4.53
2019-01-15T02:06:50.297Z,5.77
2019-01-15T02:09:32.096Z,5.93
2019-01-15T02:12:14.658Z,7.17
2019-01-15T02:14:56.478Z,5.33
2019-01-15T02:20:27.882Z,5.40
2019-01-15T02:23:18.699Z,3.73
2019-01-15T02:26:01.794Z,5.97
2019-01-15T02:28:44.410Z,3.30
2019-01-15T02:31:26.103Z,3.63
2019-01-15T02:34:07.996Z,3.53
2019-01-15T02:36:50.145Z,5.17
2019-01-15T02:39:31.968Z,3.90
2019-01-15T02:42:14.359Z,4.80
2019-01-15T02:44:56.134Z,3.37
2019-01-15T02:47:37.986Z,3.00
2019-01-15T02:50:19.915Z,4.40
2019-01-15T02:52:50.281Z,2.63
2019-01-15T02:55:22.026Z,3.87
2019-01-15T02:58:05.997Z,13.57
2019-01-15T03:00:47.954Z,8.97
2019-01-15T03:03:18.314Z,4.77
2019-01-15T03:06:09.181Z,3.43
2019-01-15T03:08:52.886Z,1.67
2019-01-15T03:11:23.259Z,4.43
2019-01-15T03:14:14.114Z,5.10
2019-01-15T03:16:45.862Z,4.00
2019-01-15T03:19:36.727Z,4.10
2019-01-15T03:22:20.110Z,3.83
2019-01-15T03:25:02.256Z,3.73
2019-01-15T03:27:32.630Z,5.77
2019-01-15T03:30:22.960Z,5.93
2019-01-15T03:33:05.508Z,4.50
2019-01-15T03:35:47.506Z,5.33
2019-01-15T03:38:29.207Z,4.03
2019-01-15T03:41:11.774Z,3.93
2019-01-15T03:43:53.753Z,3.57
2019-01-15T03:46:36.094Z,5.83
2019-01-15T03:49:17.874Z,8.27
2019-01-15T03:51:59.988Z,9.57
2019-01-15T03:54:41.630Z,9.00
2019-01-15T03:57:23.785Z,15.03
2019-01-15T04:00:06.046Z,10.70
2019-01-15T04:02:47.853Z,10.03
2019-01-15T04:05:29.836Z,7.00
2019-01-15T04:08:12.096Z,5.43
2019-01-15T04:10:54.250Z,4.93
2019-01-15T04:13:35.897Z,3.40
2019-01-15T04:16:18.140Z,3.30
2019-01-15T04:19:00.051Z,3.57
2019-01-15T04:21:42.787Z,2.87
2019-01-15T04:24:24.602Z,4.17
2019-01-15T04:27:06.254Z,2.73
2019-01-15T04:29:47.908Z,6.60
2019-01-15T04:32:29.809Z,6.00
2019-01-15T04:35:11.879Z,5.40
2019-01-15T04:37:53.647Z,3.30
2019-01-15T04:40:35.434Z,3.37
2019-01-15T04:43:19.754Z,4.77
2019-01-15T04:46:00.739Z,2.03
2019-01-15T04:48:42.384Z,4.17
2019-01-15T04:51:24.386Z,2.70
2019-01-15T04:54:06.295Z,3.27
2019-01-15T04:56:48.918Z,2.77
2019-01-15T04:59:30.991Z,4.80
2019-01-15T05:02:12.859Z,13.83
2019-01-15T05:04:54.630Z,13.40
2019-01-15T05:07:36.866Z,15.67
2019-01-15T05:10:19.005Z,11.03
2019-01-15T05:12:59.522Z,16.07
2019-01-15T05:15:48.937Z,14.07
2019-01-15T05:18:32.822Z,13.07
2019-01-15T05:21:14.426Z,12.03
2019-01-15T05:23:56.730Z,9.50
2019-01-15T05:26:38.754Z,8.23
2019-01-15T05:29:20.903Z,8.17
2019-01-15T05:32:02.774Z,8.37
2019-01-15T05:34:44.577Z,26.20
2019-01-15T05:37:27.201Z,17.70
2019-01-15T05:40:09.291Z,12.03
2019-01-15T05:42:51.201Z,13.43
2019-01-15T05:45:35.210Z,13.43
2019-01-15T05:48:23.617Z,14.70
2019-01-15T05:51:25.948Z,12.23
2019-01-15T05:54:08.035Z,14.97
2019-01-15T05:56:49.749Z,13.27
2019-01-15T05:59:31.598Z,13.20
2019-01-15T06:02:13.470Z,9.57
2019-01-15T06:04:55.286Z,9.70
2019-01-15T06:07:37.554Z,10.20
2019-01-15T06:10:17.998Z,9.53
2019-01-15T06:13:07.334Z,9.40
2019-01-15T06:15:51.078Z,7.03
2019-01-15T06:18:33.006Z,7.57
2019-01-15T06:21:15.382Z,16.53
2019-01-15T06:23:57.103Z,19.33
2019-01-15T06:26:38.762Z,23.10
2019-01-15T06:29:20.685Z,15.07
2019-01-15T06:32:03.003Z,21.00
2019-01-15T06:34:45.359Z,25.37
2019-01-15T06:37:27.410Z,22.57
2019-01-15T06:40:09.048Z,25.13
2019-01-15T06:42:50.986Z,20.97
2019-01-15T06:45:32.810Z,24.87
2019-01-15T06:48:14.642Z,24.13
2019-01-15T06:50:56.902Z,20.10
2019-01-15T06:53:38.706Z,19.43
2019-01-15T06:56:21.139Z,20.37
2019-01-15T06:59:03.134Z,16.57
2019-01-15T07:01:45.019Z,22.67
2019-01-15T07:04:27.863Z,20.57
2019-01-15T07:07:09.634Z,33.97
2019-01-15T07:09:51.622Z,27.23
2019-01-15T07:12:33.595Z,21.13
2019-01-15T07:15:15.350Z,23.03
2019-01-15T07:17:57.488Z,25.43
2019-01-15T07:20:39.334Z,21.77
2019-01-15T07:23:21.507Z,25.70
2019-01-15T07:26:03.169Z,16.63
2019-01-15T07:28:45.378Z,18.50
2019-01-15T07:31:27.142Z,20.70
2019-01-15T07:34:09.318Z,22.20
2019-01-15T07:36:51.562Z,20.87
2019-01-15T07:39:33.305Z,24.07
2019-01-15T07:42:15.563Z,22.03
2019-01-15T07:44:57.541Z,24.57
2019-01-15T07:47:39.274Z,27.60
2019-01-15T07:50:21.303Z,26.00
2019-01-15T07:53:03.308Z,29.73
2019-01-15T07:55:43.874Z,28.67
2019-01-15T07:58:33.290Z,17.13
2019-01-15T08:01:18.890Z,14.87
2019-01-15T08:04:01.186Z,14.03
2019-01-15T08:06:43.006Z,10.93
2019-01-15T08:09:24.954Z,13.43
2019-01-15T08:12:07.173Z,12.97
2019-01-15T08:14:49.358Z,16.70
2019-01-15T08:17:31.954Z,17.73
2019-01-15T08:20:13.782Z,20.17
2019-01-15T08:22:56.150Z,20.80
2019-01-15T08:25:38.392Z,19.23
2019-01-15T08:28:20.467Z,20.00
2019-01-15T08:31:02.298Z,16.47
2019-01-15T08:33:44.814Z,13.70
2019-01-15T08:36:26.854Z,14.80
2019-01-15T08:39:09.019Z,14.67
2019-01-15T08:41:51.086Z,13.47
2019-01-15T08:44:33.074Z,14.13
2019-01-15T08:47:15.473Z,15.23
2019-01-15T08:49:57.830Z,13.57
2019-01-15T08:52:39.410Z,11.17
2019-01-15T08:55:21.145Z,9.60
2019-01-15T08:58:02.966Z,10.97
2019-01-15T09:00:44.996Z,12.93
2019-01-15T09:03:26.746Z,12.33
2019-01-15T09:06:08.422Z,10.13
2019-01-15T09:08:50.254Z,9.23
2019-01-15T09:11:32.325Z,8.77
2019-01-15T09:14:14.115Z,7.90
2019-01-15T09:16:56.217Z,8.57
2019-01-15T09:19:38.318Z,8.30
2019-01-15T09:22:20.122Z,9.57
2019-01-15T09:25:02.213Z,8.10
2019-01-15T09:27:44.158Z,8.10
2019-01-15T09:30:26.238Z,4.77
2019-01-15T09:33:08.238Z,6.00
2019-01-15T09:35:50.150Z,6.97
2019-01-15T09:38:32.550Z,8.33
2019-01-15T09:41:14.827Z,8.83
2019-01-15T09:43:56.828Z,13.57
2019-01-15T09:46:38.726Z,7.17
2019-01-15T09:49:20.852Z,4.87
2019-01-15T09:52:03.309Z,3.17
2019-01-15T09:54:45.270Z,2.13
2019-01-15T09:57:27.246Z,1.93
2019-01-15T10:00:09.455Z,2.00
2019-01-15T10:02:51.205Z,2.70
2019-01-15T10:05:33.238Z,1.30
2019-01-15T10:08:15.101Z,1.47
2019-01-15T10:10:57.242Z,2.57
2019-01-15T10:13:39.034Z,1.53
2019-01-15T10:16:21.086Z,0.90
2019-01-15T10:19:03.323Z,1.30
2019-01-15T10:21:45.882Z,2.30
2019-01-15T10:24:27.927Z,0.90
2019-01-15T10:27:10.942Z,1.53
2019-01-15T10:29:59.143Z,2.20
2019-01-15T10:32:39.716Z,2.57
2019-01-15T10:35:22.026Z,1.47
2019-01-15T10:38:04.417Z,1.60
2019-01-15T10:40:46.278Z,1.07
2019-01-15T10:43:28.293Z,1.33
2019-01-15T10:46:10.213Z,0.83
2019-01-15T10:48:52.288Z,0.67
2019-01-15T10:51:34.862Z,0.77
2019-01-15T10:54:16.817Z,0.77
2019-01-15T10:56:58.740Z,0.70
2019-01-15T10:59:40.943Z,1.00
2019-01-15T11:02:22.642Z,0.80
2019-01-15T11:05:04.463Z,0.97
2019-01-15T11:07:46.263Z,0.50
2019-01-15T11:10:28.413Z,0.60
2019-01-15T11:13:10.222Z,1.20
2019-01-15T11:15:52.094Z,0.47
2019-01-15T11:18:33.950Z,0.93
2019-01-15T11:21:15.730Z,0.37
2019-01-15T11:23:57.862Z,1.90
2019-01-15T11:26:39.897Z,0.50
2019-01-15T11:29:22.278Z,1.00
2019-01-15T11:32:04.536Z,0.50
2019-01-15T11:34:46.343Z,0.60
2019-01-15T11:37:28.793Z,0.70
2019-01-15T11:40:10.557Z,2.30
2019-01-15T11:42:52.960Z,1.83
2019-01-15T11:45:34.599Z,5.03
2019-01-15T11:48:16.650Z,5.67
2019-01-15T11:50:58.275Z,3.57
2019-01-15T11:53:40.254Z,3.27
2019-01-15T11:56:22.147Z,3.93
2019-01-15T11:59:04.399Z,3.87
2019-01-15T12:05:07.666Z,3.37
2019-01-15T12:08:12.110Z,7.90
2019-01-15T12:11:14.826Z,6.47
2019-01-15T12:14:15.589Z,3.73
2019-01-15T12:17:16.141Z,4.00
2019-01-15T12:20:16.889Z,2.20
2019-01-15T12:23:23.361Z,4.13
2019-01-15T12:26:26.323Z,3.87
2019-01-15T12:29:28.841Z,1.60
2019-01-15T12:32:29.782Z,0.70
2019-01-15T12:35:32.644Z,2.30
2019-01-15T12:38:33.279Z,1.53
2019-01-15T12:41:34.548Z,1.30
2019-01-15T12:44:32.113Z,0.37
2019-01-15T12:47:34.854Z,0.37
2019-01-15T12:50:35.410Z,0.60
2019-01-15T12:53:35.951Z,0.50
2019-01-15T12:56:39.862Z,0.87
2019-01-15T12:59:45.630Z,0.60
2019-01-15T13:02:48.418Z,1.53
2019-01-15T13:05:48.994Z,0.50
2019-01-15T13:08:50.005Z,2.70
2019-01-15T13:11:50.547Z,0.30
2019-01-15T13:14:56.170Z,0.57
2019-01-15T13:17:58.854Z,1.90
2019-01-15T13:20:59.631Z,1.40
2019-01-15T13:24:00.742Z,1.53
2019-01-15T13:27:06.170Z,1.10
2019-01-15T13:30:02.926Z,0.53
2019-01-15T13:33:01.516Z,1.77
2019-01-15T13:35:58.446Z,0.90
2019-01-15T13:39:01.429Z,1.83
2019-01-15T13:42:05.581Z,1.70
2019-01-15T13:45:11.514Z,1.47
2019-01-15T13:48:20.514Z,4.57
2019-01-15T13:51:23.366Z,2.97
2019-01-15T13:54:24.190Z,5.23
2019-01-15T13:57:25.590Z,6.73
2019-01-15T14:00:29.206Z,24.53
2019-01-15T14:03:29.357Z,6.87
2019-01-15T14:06:27.333Z,2.10
2019-01-15T14:09:29.520Z,2.50
2019-01-15T14:12:36.694Z,1.03
2019-01-15T14:15:39.339Z,1.07
2019-01-15T14:18:40.202Z,0.70
2019-01-15T14:21:41.038Z,2.93
2019-01-15T14:24:42.018Z,1.03
2019-01-15T14:27:43.046Z,0.83
2019-01-15T14:30:42.526Z,0.83
2019-01-15T14:33:44.970Z,1.20
2019-01-15T14:36:48.745Z,2.87
2019-01-15T14:39:51.637Z,14.83
2019-01-15T14:42:52.298Z,3.43
2019-01-15T14:45:57.071Z,11.37
2019-01-15T14:48:51.470Z,6.03
2019-01-15T14:51:53.450Z,4.00
2019-01-15T14:54:54.699Z,0.70
2019-01-15T14:57:52.866Z,1.03
2019-01-15T15:00:55.612Z,1.93
2019-01-15T15:03:43.491Z,0.90
2019-01-15T15:06:38.988Z,1.27
2019-01-15T15:09:42.484Z,0.80
2019-01-15T15:12:57.553Z,1.57
2019-01-15T15:15:51.758Z,2.97
2019-01-15T15:18:44.018Z,1.50
2019-01-15T15:21:45.947Z,2.07
2019-01-15T15:24:52.557Z,1.30
2019-01-15T15:27:55.362Z,1.60
2019-01-15T15:31:02.177Z,1.00
2019-01-15T15:33:55.146Z,1.23
2019-01-15T15:36:57.162Z,1.93
2019-01-15T15:39:51.826Z,3.30
2019-01-15T15:42:54.478Z,3.23
2019-01-15T15:45:55.496Z,3.43
2019-01-15T15:48:56.118Z,4.67
2019-01-15T15:51:57.430Z,2.10
2019-01-15T15:54:58.335Z,1.57
2019-01-15T15:58:05.080Z,2.10
2019-01-15T16:01:07.575Z,2.27
2019-01-15T16:04:08.706Z,2.20
2019-01-15T16:07:10.922Z,2.60
2019-01-15T16:10:11.799Z,10.90
2019-01-15T16:13:05.054Z,2.90
2019-01-15T16:16:10.891Z,3.13
2019-01-15T16:19:13.678Z,3.50
2019-01-15T16:22:06.522Z,9.63
2019-01-15T16:25:13.259Z,5.87
2019-01-15T16:28:14.335Z,11.27
2019-01-15T16:31:21.443Z,5.73
2019-01-15T16:34:24.016Z,7.43
2019-01-15T16:37:24.871Z,13.90
2019-01-15T16:40:17.106Z,11.23
2019-01-15T16:43:42.672Z,9.10
2019-01-15T16:46:31.148Z,8.73
2019-01-15T16:49:40.142Z,41.03
2019-01-15T16:52:42.931Z,26.43
2019-01-15T16:55:46.406Z,9.93
2019-01-15T16:58:48.847Z,6.10
2019-01-15T17:01:55.934Z,8.97
2019-01-15T17:04:58.299Z,13.90
2019-01-15T17:08:02.030Z,51.33
2019-01-15T17:14:10.926Z,8.90
2019-01-15T17:17:07.943Z,9.00
2019-01-15T17:20:13.878Z,10.63
2019-01-15T17:23:16.083Z,12.90
2019-01-15T17:26:16.834Z,13.57
2019-01-15T17:29:10.004Z,17.13
2019-01-15T17:32:12.438Z,18.67
2019-01-15T17:35:13.056Z,15.43
2019-01-15T17:38:13.930Z,15.60
2019-01-15T17:41:18.528Z,19.00
2019-01-15T17:44:21.427Z,20.27
2019-01-15T17:47:11.515Z,19.87
2019-01-15T17:50:14.279Z,16.77
2019-01-15T17:53:20.981Z,14.80
2019-01-15T17:56:29.818Z,14.83
2019-01-15T17:59:37.869Z,42.77
2019-01-15T18:02:44.797Z,25.03
2019-01-15T18:05:53.407Z,45.57
2019-01-15T18:08:56.314Z,30.10
2019-01-15T18:11:57.066Z,15.03
2019-01-15T18:14:58.043Z,63.13
2019-01-15T18:18:01.930Z,12.70
2019-01-15T18:21:13.765Z,9.80
2019-01-15T18:24:21.983Z,11.13
2019-01-15T18:27:22.558Z,15.63
2019-01-15T18:30:24.754Z,16.53
2019-01-15T18:33:26.942Z,14.37
2019-01-15T18:36:27.647Z,12.27
2019-01-15T18:39:28.402Z,14.37
2019-01-15T18:42:29.293Z,10.80
2019-01-15T18:45:29.091Z,16.27
2019-01-15T18:48:32.685Z,19.13
2019-01-15T18:51:29.255Z,14.10
2019-01-15T18:54:32.050Z,18.33
2019-01-15T18:57:30.534Z,22.73
2019-01-15T19:00:42.965Z,20.57
2019-01-15T19:03:45.766Z,20.50
2019-01-15T19:06:46.481Z,23.57
2019-01-15T19:09:50.405Z,21.73
2019-01-15T19:12:53.023Z,16.03
2019-01-15T19:15:53.515Z,35.13
2019-01-15T19:18:54.458Z,24.00
2019-01-15T19:21:52.424Z,20.10
2019-01-15T19:24:54.617Z,17.17
2019-01-15T19:27:55.851Z,13.90
2019-01-15T19:30:45.166Z,11.87
2019-01-15T19:33:54.990Z,11.07
2019-01-15T19:36:57.684Z,14.83
2019-01-15T19:40:01.431Z,17.23
2019-01-15T19:43:04.755Z,13.90
2019-01-15T19:46:04.361Z,13.10
2019-01-15T19:49:07.156Z,15.10
2019-01-15T19:52:03.557Z,19.43
2019-01-15T19:55:05.767Z,21.70
2019-01-15T19:58:06.582Z,29.03
2019-01-15T20:01:07.448Z,61.70
2019-01-15T20:04:08.054Z,25.57
2019-01-15T20:07:09.089Z,20.70
2019-01-15T20:10:11.568Z,24.53
2019-01-15T20:13:17.546Z,22.53
2019-01-15T20:16:20.070Z,21.20
2019-01-15T20:19:13.678Z,23.33
2019-01-15T20:22:16.118Z,31.03
2019-01-15T20:25:07.370Z,37.50
2019-01-15T20:31:19.675Z,28.47
2019-01-15T20:34:29.463Z,41.60
2019-01-15T20:37:34.895Z,33.47
2019-01-15T20:40:37.168Z,24.27
2019-01-15T20:43:40.031Z,26.17
2019-01-15T20:46:40.628Z,39.90
2019-01-15T20:49:48.074Z,47.03
2019-01-15T20:52:47.270Z,53.50
2019-01-15T20:55:50.420Z,38.90
2019-01-15T20:58:45.719Z,31.87
2019-01-15T21:01:46.481Z,31.87
2019-01-15T21:04:47.522Z,19.37
2019-01-15T21:07:48.522Z,21.83
2019-01-15T21:10:49.302Z,19.47
2019-01-15T21:13:50.410Z,20.10
2019-01-15T21:16:51.195Z,21.47
2019-01-15T21:19:53.750Z,21.33
2019-01-15T21:22:54.627Z,18.07
2019-01-15T21:25:56.775Z,19.60
2019-01-15T21:28:46.277Z,18.17
2019-01-15T21:31:37.005Z,23.07
2019-01-15T21:34:37.940Z,19.30
2019-01-15T21:37:38.707Z,22.40
2019-01-15T21:40:19.653Z,21.50
2019-01-15T21:43:29.363Z,17.57
2019-01-15T21:46:21.738Z,20.13
2019-01-15T21:49:26.887Z,19.80
2019-01-15T21:55:48.086Z,18.47
2019-01-15T21:58:44.645Z,16.40
2019-01-15T22:01:47.078Z,15.50
2019-01-15T22:04:49.684Z,13.97
2019-01-15T22:07:50.673Z,11.43
2019-01-15T22:10:54.582Z,15.13
2019-01-15T22:13:45.235Z,20.93
2019-01-15T22:16:55.023Z,22.60
2019-01-15T22:19:56.438Z,14.70
2019-01-15T22:22:57.328Z,16.20
2019-01-15T22:25:58.618Z,14.90
2019-01-15T22:28:59.504Z,22.13
2019-01-15T22:32:00.107Z,25.77
2019-01-15T22:35:01.194Z,21.83
2019-01-15T22:38:02.286Z,19.00
2019-01-15T22:41:03.728Z,17.57
2019-01-15T22:43:43.434Z,13.27
2019-01-15T22:46:51.778Z,12.70
2019-01-15T22:49:56.253Z,14.30
2019-01-15T22:52:58.967Z,10.80
2019-01-15T22:55:59.971Z,13.03
2019-01-15T22:59:02.670Z,12.53
2019-01-15T23:02:07.611Z,9.57
2019-01-15T23:05:08.727Z,8.70
2019-01-15T23:08:09.771Z,8.03
2019-01-15T23:11:14.294Z,7.73
2019-01-15T23:14:05.026Z,7.17
2019-01-15T23:17:13.395Z,6.80
2019-01-15T23:20:18.595Z,7.93
2019-01-15T23:23:27.562Z,5.83
2019-01-15T23:29:35.515Z,7.97
2019-01-15T23:32:29.212Z,5.60
2019-01-15T23:35:31.478Z,6.83
2019-01-15T23:38:38.290Z,10.20
2019-01-15T23:41:40.674Z,9.97
2019-01-15T23:44:32.465Z,10.23
2019-01-15T23:47:42.178Z,13.53
2019-01-15T23:50:43.248Z,10.27
2019-01-15T23:53:39.699Z,11.43
2019-01-15T23:56:42.247Z,10.30
2019-01-15T23:59:43.050Z,9.20
